createdAt,value
2024-02-20T00:00:00.716Z,7.3
2024-02-20T00:01:01.229Z,7.3
2024-02-20T00:02:02.030Z,7.3
2024-02-20T00:03:02.617Z,7.3
2024-02-20T00:04:02.850Z,7.3
2024-02-20T00:05:03.122Z,7.3
2024-02-20T00:06:03.441Z,7.3
2024-02-20T00:07:03.792Z,7.3
2024-02-20T00:08:04.733Z,7.3
2024-02-20T00:09:04.960Z,7.3
2024-02-20T00:10:05.214Z,7.3
2024-02-20T00:11:05.482Z,7.3
2024-02-20T00:12:05.706Z,7.3
2024-02-20T00:13:06.066Z,7.3
2024-02-20T00:14:06.357Z,7.3
2024-02-20T00:15:06.534Z,7.3
2024-02-20T00:16:06.766Z,7.3
2024-02-20T00:17:06.963Z,7.3
2024-02-20T00:18:07.525Z,7.3
2024-02-20T00:19:08.162Z,7.3
2024-02-20T00:20:08.591Z,7.3
2024-02-20T00:21:08.840Z,7.3
2024-02-20T00:22:09.101Z,7.3
2024-02-20T00:23:14.743Z,7.3
2024-02-20T00:24:15.438Z,7.3
2024-02-20T00:25:15.706Z,7.3
2024-02-20T00:26:15.996Z,7.3
2024-02-20T00:27:16.164Z,7.3
2024-02-20T00:28:16.493Z,7.3
2024-02-20T00:29:16.756Z,7.3
2024-02-20T00:30:16.911Z,7.3
2024-02-20T00:31:17.220Z,7.3
2024-02-20T00:32:17.500Z,7.3
2024-02-20T00:33:17.822Z,7.3
2024-02-20T00:34:18.198Z,7.3
2024-02-20T00:35:18.644Z,7.3
2024-02-20T00:36:19.020Z,7.3
2024-02-20T00:37:19.246Z,7.3
2024-02-20T00:38:19.572Z,7.3
2024-02-20T00:39:19.759Z,7.3
2024-02-20T00:40:20.060Z,7.3
2024-02-20T00:41:20.294Z,7.3
2024-02-20T00:42:24.541Z,7.3
2024-02-20T00:43:28.030Z,7.4
2024-02-20T00:44:28.355Z,7.4
2024-02-20T00:45:28.510Z,7.4
2024-02-20T00:46:28.768Z,7.4
2024-02-20T00:47:29.139Z,7.4
2024-02-20T00:48:29.417Z,7.4
2024-02-20T00:49:29.918Z,7.4
2024-02-20T00:50:30.279Z,7.4
2024-02-20T00:51:30.456Z,7.4
2024-02-20T00:52:30.744Z,7.4
2024-02-20T00:53:31.066Z,7.4
2024-02-20T00:54:31.269Z,7.4
2024-02-20T00:55:31.560Z,7.4
2024-02-20T00:56:31.816Z,7.4
2024-02-20T00:57:32.007Z,7.4
2024-02-20T00:58:32.421Z,7.4
2024-02-20T00:59:32.773Z,7.4
2024-02-20T01:00:32.997Z,7.4
2024-02-20T01:01:33.475Z,7.4
2024-02-20T01:02:33.926Z,7.4
2024-02-20T01:03:34.185Z,7.4
2024-02-20T01:04:34.503Z,7.4
2024-02-20T01:05:34.791Z,7.4
2024-02-20T01:06:34.997Z,7.4
2024-02-20T01:07:35.339Z,7.4
2024-02-20T01:08:35.673Z,7.4
2024-02-20T01:09:35.919Z,7.4
2024-02-20T01:10:36.277Z,7.4
2024-02-20T01:11:36.728Z,7.4
2024-02-20T01:12:36.948Z,7.4
2024-02-20T01:13:37.257Z,7.4
2024-02-20T01:14:37.537Z,7.4
2024-02-20T01:15:37.708Z,7.4
2024-02-20T01:16:37.957Z,7.4
2024-02-20T01:17:38.331Z,7.4
2024-02-20T01:18:38.728Z,7.4
2024-02-20T01:19:39.177Z,7.4
2024-02-20T01:20:39.400Z,7.4
2024-02-20T01:21:39.543Z,7.4
2024-02-20T01:22:39.773Z,7.4
2024-02-20T01:23:40.032Z,7.4
2024-02-20T01:24:40.212Z,7.4
2024-02-20T01:25:40.430Z,7.4
2024-02-20T01:26:40.713Z,7.4
2024-02-20T01:27:40.864Z,7.4
2024-02-20T01:28:41.080Z,7.4
2024-02-20T01:29:41.347Z,7.4
2024-02-20T01:30:41.518Z,7.4
2024-02-20T01:31:41.819Z,7.4
2024-02-20T01:32:42.122Z,7.4
2024-02-20T01:33:42.369Z,7.4
2024-02-20T01:34:42.774Z,7.4
2024-02-20T01:35:43.234Z,7.4
2024-02-20T01:36:43.414Z,7.4
2024-02-20T01:37:43.730Z,7.4
2024-02-20T01:38:43.964Z,7.4
2024-02-20T01:39:44.138Z,7.4
2024-02-20T01:40:44.383Z,7.4
2024-02-20T01:41:44.726Z,7.4
2024-02-20T01:42:44.869Z,7.4
2024-02-20T01:43:45.047Z,7.4
2024-02-20T01:44:45.224Z,7.4
2024-02-20T01:45:45.650Z,7.4
2024-02-20T01:46:45.991Z,7.4
2024-02-20T01:47:46.371Z,7.4
2024-02-20T01:48:47.222Z,7.4
2024-02-20T01:49:47.969Z,7.4
2024-02-20T01:50:48.638Z,7.3
2024-02-20T01:51:49.110Z,7.3
2024-02-20T01:52:49.379Z,7.3
2024-02-20T01:53:49.536Z,7.3
2024-02-20T01:54:50.198Z,7.3
2024-02-20T01:55:50.474Z,7.3
2024-02-20T01:56:50.669Z,7.3
2024-02-20T01:57:50.954Z,7.3
2024-02-20T01:58:51.203Z,7.3
2024-02-20T01:59:51.362Z,7.3
2024-02-20T02:00:51.617Z,7.3
2024-02-20T02:01:52.033Z,7.3
2024-02-20T02:02:52.222Z,7.3
2024-02-20T02:03:52.628Z,7.3
2024-02-20T02:04:53.159Z,7.3
2024-02-20T02:05:53.770Z,7.3
2024-02-20T02:06:54.396Z,7.3
2024-02-20T02:07:54.961Z,7.3
2024-02-20T02:08:55.139Z,7.3
2024-02-20T02:09:55.412Z,7.3
2024-02-20T02:10:55.816Z,7.3
2024-02-20T02:11:56.070Z,7.3
2024-02-20T02:12:56.355Z,7.3
2024-02-20T02:13:56.643Z,7.3
2024-02-20T02:14:56.837Z,7.3
2024-02-20T02:15:57.173Z,7.3
2024-02-20T02:16:57.616Z,7.3
2024-02-20T02:17:57.941Z,7.3
2024-02-20T02:18:58.442Z,7.3
2024-02-20T02:19:59.065Z,7.3
2024-02-20T02:20:59.417Z,7.3
2024-02-20T02:21:59.746Z,7.3
2024-02-20T02:22:59.977Z,7.3
2024-02-20T02:24:00.194Z,7.3
2024-02-20T02:25:00.502Z,7.3
2024-02-20T02:26:00.718Z,7.3
2024-02-20T02:27:00.888Z,7.3
2024-02-20T02:28:01.138Z,7.3
2024-02-20T02:29:01.379Z,7.3
2024-02-20T02:30:01.606Z,7.3
2024-02-20T02:31:01.840Z,7.3
2024-02-20T02:32:02.088Z,7.3
2024-02-20T02:33:02.365Z,7.3
2024-02-20T02:34:02.993Z,7.3
2024-02-20T02:35:03.806Z,7.3
2024-02-20T02:36:04.276Z,7.3
2024-02-20T02:37:04.546Z,7.3
2024-02-20T02:38:04.847Z,7.3
2024-02-20T02:39:05.016Z,7.3
2024-02-20T02:40:05.324Z,7.3
2024-02-20T02:41:05.711Z,7.3
2024-02-20T02:42:05.854Z,7.3
2024-02-20T02:43:06.135Z,7.3
2024-02-20T02:44:06.357Z,7.3
2024-02-20T02:45:06.528Z,7.3
2024-02-20T02:46:06.818Z,7.3
2024-02-20T02:47:07.181Z,7.3
2024-02-20T02:48:07.383Z,7.3
2024-02-20T02:49:07.725Z,7.3
2024-02-20T02:50:08.516Z,7.3
2024-02-20T02:51:09.052Z,7.1
2024-02-20T02:52:09.250Z,7.1
2024-02-20T02:53:09.435Z,7.1
2024-02-20T02:54:09.600Z,7.1
2024-02-20T02:55:09.811Z,7.1
2024-02-20T02:56:10.056Z,7.1
2024-02-20T02:57:10.267Z,7.1
2024-02-20T02:58:10.445Z,7.1
2024-02-20T02:59:10.733Z,7.1
2024-02-20T03:00:10.902Z,7.1
2024-02-20T03:01:11.600Z,7.1
2024-02-20T03:02:12.103Z,7.1
2024-02-20T03:03:12.516Z,7.1
2024-02-20T03:04:12.849Z,7.1
2024-02-20T03:05:13.133Z,7.1
2024-02-20T03:06:13.333Z,7.1
2024-02-20T03:07:13.601Z,7.1
2024-02-20T03:08:13.869Z,7.1
2024-02-20T03:09:14.702Z,7.1
2024-02-20T03:10:15.022Z,7.1
2024-02-20T03:11:15.338Z,7.1
2024-02-20T03:12:15.605Z,7.1
2024-02-20T03:13:15.995Z,7.1
2024-02-20T03:14:16.241Z,7.1
2024-02-20T03:15:16.422Z,7.1
2024-02-20T03:16:17.059Z,7.1
2024-02-20T03:17:17.292Z,7.1
2024-02-20T03:18:17.482Z,7.1
2024-02-20T03:19:17.892Z,7.1
2024-02-20T03:20:18.598Z,7.1
2024-02-20T03:21:18.820Z,7.1
2024-02-20T03:22:19.092Z,7.1
2024-02-20T03:23:19.363Z,7.1
2024-02-20T03:24:19.525Z,7.1
2024-02-20T03:25:19.757Z,7.1
2024-02-20T03:26:20.007Z,7.1
2024-02-20T03:27:20.220Z,7.1
2024-02-20T03:28:20.455Z,7.1
2024-02-20T03:29:20.704Z,7.1
2024-02-20T03:30:20.865Z,7.1
2024-02-20T03:31:21.157Z,7.1
2024-02-20T03:32:21.400Z,7.1
2024-02-20T03:33:21.726Z,7.1
2024-02-20T03:34:22.620Z,7.1
2024-02-20T03:35:23.255Z,7.1
2024-02-20T03:36:23.541Z,7.1
2024-02-20T03:37:23.855Z,7.1
2024-02-20T03:38:24.082Z,7.1
2024-02-20T03:39:24.253Z,7.1
2024-02-20T03:40:24.580Z,7.1
2024-02-20T03:41:24.893Z,7.1
2024-02-20T03:42:25.040Z,7.1
2024-02-20T03:43:25.300Z,7.1
2024-02-20T03:44:25.548Z,7.1
2024-02-20T03:45:25.745Z,7.1
2024-02-20T03:46:25.963Z,7.1
2024-02-20T03:47:26.365Z,7.1
2024-02-20T03:48:27.012Z,7.1
2024-02-20T03:49:27.995Z,7.1
2024-02-20T03:50:28.596Z,7.1
2024-02-20T03:51:28.857Z,6.8
2024-02-20T03:52:29.093Z,6.8
2024-02-20T03:53:29.443Z,6.8
2024-02-20T03:54:29.658Z,6.8
2024-02-20T03:55:29.896Z,6.8
2024-02-20T03:56:30.139Z,6.8
2024-02-20T03:57:30.328Z,6.8
2024-02-20T03:58:30.759Z,6.8
2024-02-20T03:59:31.069Z,6.8
2024-02-20T04:00:31.259Z,6.8
2024-02-20T04:01:31.700Z,6.8
2024-02-20T04:02:32.136Z,6.8
2024-02-20T04:03:32.334Z,6.8
2024-02-20T04:04:32.693Z,6.8
2024-02-20T04:05:32.928Z,6.8
2024-02-20T04:06:33.189Z,6.8
2024-02-20T04:07:33.843Z,6.8
2024-02-20T04:08:34.434Z,6.8
2024-02-20T04:09:34.613Z,6.8
2024-02-20T04:10:34.959Z,6.8
2024-02-20T04:11:35.423Z,6.8
2024-02-20T04:12:35.627Z,6.8
2024-02-20T04:13:36.088Z,6.8
2024-02-20T04:14:36.343Z,6.8
2024-02-20T04:15:36.569Z,6.8
2024-02-20T04:16:36.884Z,6.8
2024-02-20T04:17:37.180Z,6.8
2024-02-20T04:18:37.605Z,6.8
2024-02-20T04:19:38.087Z,6.8
2024-02-20T04:20:38.474Z,6.8
2024-02-20T04:21:38.645Z,6.8
2024-02-20T04:22:38.919Z,6.8
2024-02-20T04:23:39.345Z,6.8
2024-02-20T04:24:39.616Z,6.8
2024-02-20T04:25:40.032Z,6.8
2024-02-20T04:26:40.268Z,6.8
2024-02-20T04:27:40.426Z,6.8
2024-02-20T04:28:40.624Z,6.8
2024-02-20T04:29:40.949Z,6.8
2024-02-20T04:30:41.168Z,6.8
2024-02-20T04:31:41.474Z,6.8
2024-02-20T04:32:41.849Z,6.8
2024-02-20T04:33:42.220Z,6.8
2024-02-20T04:34:42.631Z,6.8
2024-02-20T04:35:42.928Z,6.8
2024-02-20T04:36:43.070Z,6.8
2024-02-20T04:37:43.302Z,6.8
2024-02-20T04:38:43.532Z,6.8
2024-02-20T04:39:43.704Z,6.8
2024-02-20T04:40:44.302Z,6.8
2024-02-20T04:41:44.568Z,6.8
2024-02-20T04:42:44.716Z,6.8
2024-02-20T04:43:44.998Z,6.8
2024-02-20T04:44:45.367Z,6.8
2024-02-20T04:45:45.515Z,6.8
2024-02-20T04:46:45.685Z,6.8
2024-02-20T04:47:45.925Z,6.8
2024-02-20T04:48:46.214Z,6.8
2024-02-20T04:49:46.630Z,6.8
2024-02-20T04:50:46.958Z,6.7
2024-02-20T04:51:47.140Z,6.7
2024-02-20T04:52:47.385Z,6.7
2024-02-20T04:53:47.673Z,6.7
2024-02-20T04:54:47.855Z,6.7
2024-02-20T04:55:48.044Z,6.7
2024-02-20T04:56:48.246Z,6.7
2024-02-20T04:57:48.408Z,6.7
2024-02-20T04:58:48.751Z,6.7
2024-02-20T04:59:49.585Z,6.7
2024-02-20T05:00:49.946Z,6.7
2024-02-20T05:01:50.380Z,6.7
2024-02-20T05:02:50.696Z,6.7
2024-02-20T05:03:51.048Z,6.7
2024-02-20T05:04:56.478Z,6.7
2024-02-20T05:05:57.939Z,6.4
2024-02-20T05:06:58.362Z,6.4
2024-02-20T05:07:58.874Z,6.4
2024-02-20T05:08:59.114Z,6.4
2024-02-20T05:09:59.334Z,6.4
2024-02-20T05:10:59.791Z,6.4
2024-02-20T05:12:00.185Z,6.4
2024-02-20T05:13:00.512Z,6.4
2024-02-20T05:14:00.768Z,6.4
2024-02-20T05:15:00.930Z,6.4
2024-02-20T05:16:01.140Z,6.4
2024-02-20T05:17:01.388Z,6.4
2024-02-20T05:18:01.677Z,6.4
2024-02-20T05:19:02.150Z,6.4
2024-02-20T05:20:02.734Z,6.4
2024-02-20T05:21:03.303Z,6.4
2024-02-20T05:22:03.543Z,6.4
2024-02-20T05:23:03.828Z,6.4
2024-02-20T05:24:04.015Z,6.4
2024-02-20T05:25:04.252Z,6.4
2024-02-20T05:26:04.449Z,6.4
2024-02-20T05:27:04.808Z,6.4
2024-02-20T05:28:05.093Z,6.4
2024-02-20T05:29:05.288Z,6.4
2024-02-20T05:30:05.447Z,6.4
2024-02-20T05:31:05.655Z,6.4
2024-02-20T05:32:05.913Z,6.4
2024-02-20T05:33:06.227Z,6.4
2024-02-20T05:34:06.556Z,6.4
2024-02-20T05:35:07.152Z,6.4
2024-02-20T05:36:07.477Z,6.4
2024-02-20T05:37:07.688Z,6.4
2024-02-20T05:38:07.909Z,6.4
2024-02-20T05:39:08.055Z,6.4
2024-02-20T05:40:08.235Z,6.4
2024-02-20T05:41:08.456Z,6.4
2024-02-20T05:42:08.635Z,6.4
2024-02-20T05:43:08.897Z,6.4
2024-02-20T05:44:09.171Z,6.4
2024-02-20T05:45:09.675Z,6.4
2024-02-20T05:46:09.887Z,6.4
2024-02-20T05:47:10.112Z,6.4
2024-02-20T05:48:10.545Z,6.4
2024-02-20T05:49:11.291Z,6.4
2024-02-20T05:50:12.011Z,6.4
2024-02-20T05:51:12.587Z,5.9
2024-02-20T05:52:12.829Z,5.9
2024-02-20T05:53:13.067Z,5.9
2024-02-20T05:54:13.224Z,5.9
2024-02-20T05:55:13.447Z,5.9
2024-02-20T05:56:13.692Z,5.9
2024-02-20T05:57:13.843Z,5.9
2024-02-20T05:58:14.112Z,5.9
2024-02-20T05:59:14.344Z,5.9
2024-02-20T06:00:14.521Z,5.9
2024-02-20T06:01:14.871Z,5.9
2024-02-20T06:02:15.298Z,5.9
2024-02-20T06:03:15.546Z,5.9
2024-02-20T06:04:15.888Z,5.9
2024-02-20T06:05:16.802Z,5.9
2024-02-20T06:06:17.474Z,5.9
2024-02-20T06:07:17.938Z,5.9
2024-02-20T06:08:18.194Z,5.9
2024-02-20T06:09:18.341Z,5.9
2024-02-20T06:10:18.661Z,5.9
2024-02-20T06:11:19.013Z,5.9
2024-02-20T06:12:19.756Z,5.9
2024-02-20T06:13:19.953Z,5.9
2024-02-20T06:14:20.191Z,5.9
2024-02-20T06:15:20.363Z,5.9
2024-02-20T06:16:20.542Z,5.9
2024-02-20T06:17:20.797Z,5.9
2024-02-20T06:18:21.067Z,5.9
2024-02-20T06:19:21.644Z,5.9
2024-02-20T06:20:21.956Z,5.9
2024-02-20T06:21:22.105Z,5.9
2024-02-20T06:22:22.320Z,5.9
2024-02-20T06:23:22.548Z,5.9
2024-02-20T06:24:22.701Z,5.9
2024-02-20T06:25:22.982Z,5.9
2024-02-20T06:26:23.196Z,5.9
2024-02-20T06:27:23.442Z,5.9
2024-02-20T06:28:23.676Z,5.9
2024-02-20T06:29:23.961Z,5.9
2024-02-20T06:30:24.131Z,5.9
2024-02-20T06:31:24.368Z,5.9
2024-02-20T06:32:24.644Z,5.9
2024-02-20T06:33:24.920Z,5.9
2024-02-20T06:34:25.477Z,5.9
2024-02-20T06:35:26.085Z,5.9
2024-02-20T06:36:26.458Z,5.9
2024-02-20T06:37:26.751Z,5.9
2024-02-20T06:38:27.032Z,5.9
2024-02-20T06:39:27.175Z,5.9
2024-02-20T06:40:27.428Z,5.9
2024-02-20T06:41:27.701Z,5.9
2024-02-20T06:42:28.002Z,5.9
2024-02-20T06:43:28.606Z,5.9
2024-02-20T06:44:29.051Z,5.9
2024-02-20T06:45:29.206Z,5.9
2024-02-20T06:46:29.431Z,5.9
2024-02-20T06:47:29.719Z,5.9
2024-02-20T06:48:30.038Z,5.9
2024-02-20T06:49:30.593Z,5.9
2024-02-20T06:50:31.136Z,6.1
2024-02-20T06:51:31.820Z,6.1
2024-02-20T06:52:32.136Z,6.1
2024-02-20T06:53:32.360Z,6.1
2024-02-20T06:54:32.516Z,6.1
2024-02-20T06:55:32.864Z,6.1
2024-02-20T06:56:33.077Z,6.1
2024-02-20T06:57:33.231Z,6.1
2024-02-20T06:58:33.464Z,6.1
2024-02-20T06:59:33.699Z,6.1
2024-02-20T07:00:34.118Z,6.1
2024-02-20T07:01:34.766Z,6.1
2024-02-20T07:02:35.302Z,6.1
2024-02-20T07:03:35.492Z,6.1
2024-02-20T07:04:35.815Z,6.1
2024-02-20T07:05:36.681Z,6.1
2024-02-20T07:06:37.243Z,6.1
2024-02-20T07:07:37.578Z,6.1
2024-02-20T07:08:37.866Z,6.1
2024-02-20T07:09:38.031Z,6.1
2024-02-20T07:10:38.313Z,6.1
2024-02-20T07:11:38.712Z,6.1
2024-02-20T07:12:38.972Z,6.1
2024-02-20T07:13:39.419Z,6.1
2024-02-20T07:14:40.095Z,6.1
2024-02-20T07:15:40.281Z,6.1
2024-02-20T07:16:40.693Z,6.1
2024-02-20T07:17:41.012Z,6.1
2024-02-20T07:18:41.315Z,6.1
2024-02-20T07:19:41.763Z,6.1
2024-02-20T07:20:42.161Z,6.1
2024-02-20T07:21:42.352Z,6.1
2024-02-20T07:22:42.632Z,6.1
2024-02-20T07:23:42.898Z,6.1
2024-02-20T07:24:43.064Z,6.1
2024-02-20T07:25:43.372Z,6.1
2024-02-20T07:26:43.759Z,6.1
2024-02-20T07:27:43.913Z,6.1
2024-02-20T07:28:44.189Z,6.1
2024-02-20T07:29:44.452Z,6.1
2024-02-20T07:30:44.732Z,6.1
2024-02-20T07:31:44.984Z,6.1
2024-02-20T07:32:45.906Z,6.1
2024-02-20T07:33:57.378Z,6.1
2024-02-20T07:35:10.570Z,6
2024-02-20T07:36:11.101Z,6
2024-02-20T07:37:11.367Z,6
2024-02-20T07:38:11.559Z,6
2024-02-20T07:39:11.708Z,6
2024-02-20T07:40:11.953Z,6
2024-02-20T07:41:12.429Z,6
2024-02-20T07:42:12.617Z,6
2024-02-20T07:43:12.837Z,6
2024-02-20T07:44:13.059Z,6
2024-02-20T07:45:13.213Z,6
2024-02-20T07:46:13.455Z,6
2024-02-20T07:47:13.632Z,6
2024-02-20T07:48:13.932Z,6
2024-02-20T07:49:14.638Z,6
2024-02-20T07:50:15.215Z,6
2024-02-20T07:51:15.595Z,6.1
2024-02-20T07:52:15.875Z,6.1
2024-02-20T07:53:16.111Z,6.1
2024-02-20T07:54:16.317Z,6.1
2024-02-20T07:55:16.578Z,6.1
2024-02-20T07:56:16.860Z,6.1
2024-02-20T07:57:17.066Z,6.1
2024-02-20T07:58:24.561Z,6.1
2024-02-20T07:59:40.227Z,6.3
2024-02-20T08:00:40.448Z,6.3
2024-02-20T08:01:40.827Z,6.3
2024-02-20T08:02:41.365Z,6.3
2024-02-20T08:03:41.565Z,6.3
2024-02-20T08:04:41.870Z,6.3
2024-02-20T08:05:42.317Z,6.3
2024-02-20T08:06:42.744Z,6.3
2024-02-20T08:07:43.121Z,6.3
2024-02-20T08:08:43.363Z,6.3
2024-02-20T08:09:43.529Z,6.3
2024-02-20T08:10:43.972Z,6.3
2024-02-20T08:11:44.486Z,6.3
2024-02-20T08:12:44.810Z,6.3
2024-02-20T08:13:45.065Z,6.3
2024-02-20T08:14:48.814Z,6.3
2024-02-20T08:15:49.212Z,6.8
2024-02-20T08:16:49.497Z,6.8
2024-02-20T08:17:49.772Z,6.8
2024-02-20T08:18:50.101Z,6.8
2024-02-20T08:19:50.451Z,6.8
2024-02-20T08:20:50.797Z,6.8
2024-02-20T08:21:50.977Z,6.8
2024-02-20T08:22:51.268Z,6.8
2024-02-20T08:23:51.586Z,6.8
2024-02-20T08:24:51.748Z,6.8
2024-02-20T08:25:52.004Z,7.1
2024-02-20T08:26:52.251Z,7.1
2024-02-20T08:27:52.390Z,7.1
2024-02-20T08:28:52.613Z,7.1
2024-02-20T08:29:52.824Z,7.1
2024-02-20T08:30:52.996Z,7.1
2024-02-20T08:31:53.222Z,7.1
2024-02-20T08:32:53.523Z,7.1
2024-02-20T08:33:53.913Z,7.1
2024-02-20T08:34:54.699Z,7.1
2024-02-20T08:35:55.237Z,7.1
2024-02-20T08:36:55.482Z,7.1
2024-02-20T08:37:55.769Z,7.1
2024-02-20T08:38:55.958Z,7.1
2024-02-20T08:39:56.158Z,7.1
2024-02-20T08:40:56.359Z,7.1
2024-02-20T08:41:56.587Z,7.1
2024-02-20T08:42:56.872Z,7.1
2024-02-20T08:43:57.080Z,7.1
2024-02-20T08:44:57.271Z,7.1
2024-02-20T08:45:57.532Z,7.1
2024-02-20T08:46:57.795Z,7.1
2024-02-20T08:47:58.108Z,8.1
2024-02-20T08:48:58.657Z,8.1
2024-02-20T08:49:59.205Z,8.1
2024-02-20T08:50:59.431Z,8.1
2024-02-20T08:51:59.667Z,8.1
2024-02-20T08:52:59.940Z,8.1
2024-02-20T08:54:00.119Z,8.1
2024-02-20T08:55:00.461Z,8.1
2024-02-20T08:56:00.718Z,8.1
2024-02-20T08:57:00.879Z,8.1
2024-02-20T08:58:01.101Z,8.1
2024-02-20T08:59:01.352Z,8.1
2024-02-20T09:00:01.555Z,8.1
2024-02-20T09:01:03.555Z,8.1
2024-02-20T09:02:04.488Z,8.1
2024-02-20T09:03:05.432Z,8.1
2024-02-20T09:04:05.682Z,8.1
2024-02-20T09:05:06.272Z,9.1
2024-02-20T09:06:07.124Z,9.1
2024-02-20T09:07:08.009Z,9.1
2024-02-20T09:08:08.532Z,9.1
2024-02-20T09:09:08.813Z,9.1
2024-02-20T09:10:09.136Z,9.1
2024-02-20T09:11:09.549Z,9.1
2024-02-20T09:12:09.924Z,9.1
2024-02-20T09:13:10.209Z,9.1
2024-02-20T09:14:10.466Z,9.1
2024-02-20T09:15:10.615Z,10.1
2024-02-20T09:16:10.873Z,10.1
2024-02-20T09:17:11.142Z,10.1
2024-02-20T09:18:13.435Z,10.1
2024-02-20T09:19:14.006Z,10.1
2024-02-20T09:20:14.561Z,10.1
2024-02-20T09:21:14.943Z,10.1
2024-02-20T09:22:15.191Z,10.1
2024-02-20T09:23:15.407Z,10.1
2024-02-20T09:24:15.571Z,10.1
2024-02-20T09:25:15.882Z,10.1
2024-02-20T09:26:16.096Z,10.1
2024-02-20T09:27:16.237Z,10.1
2024-02-20T09:28:16.472Z,10.1
2024-02-20T09:29:16.700Z,10.1
2024-02-20T09:30:16.851Z,10.1
2024-02-20T09:31:17.106Z,10.1
2024-02-20T09:32:17.372Z,10.1
2024-02-20T09:33:17.741Z,10.1
2024-02-20T09:34:18.297Z,10.1
2024-02-20T09:35:18.774Z,10.1
2024-02-20T09:36:19.042Z,10.1
2024-02-20T09:37:19.304Z,10.1
2024-02-20T09:38:19.525Z,10.1
2024-02-20T09:39:19.664Z,10.1
2024-02-20T09:40:20.065Z,10.1
2024-02-20T09:41:20.290Z,10.1
2024-02-20T09:42:20.486Z,10.1
2024-02-20T09:43:20.687Z,10.1
2024-02-20T09:44:21.001Z,10.1
2024-02-20T09:45:22.062Z,10.1
2024-02-20T09:46:22.497Z,10.1
2024-02-20T09:47:22.821Z,10.1
2024-02-20T09:48:23.109Z,10.1
2024-02-20T09:49:23.691Z,10.1
2024-02-20T09:50:24.437Z,10.1
2024-02-20T09:51:24.946Z,10.1
2024-02-20T09:52:25.374Z,10.1
2024-02-20T09:53:25.671Z,10.1
2024-02-20T09:54:25.823Z,10.1
2024-02-20T09:55:26.824Z,10.1
2024-02-20T09:56:27.058Z,10.1
2024-02-20T09:57:27.223Z,10.1
2024-02-20T09:58:30.873Z,10.1
2024-02-20T09:59:34.474Z,11
2024-02-20T10:00:34.755Z,11.1
2024-02-20T10:01:35.340Z,11.1
2024-02-20T10:02:35.762Z,11.1
2024-02-20T10:03:35.920Z,11.1
2024-02-20T10:04:36.354Z,11.1
2024-02-20T10:05:36.798Z,11.1
2024-02-20T10:06:37.379Z,11.1
2024-02-20T10:07:37.702Z,11.1
2024-02-20T10:08:37.949Z,11.1
2024-02-20T10:09:38.151Z,11.1
2024-02-20T10:10:38.448Z,11.1
2024-02-20T10:11:38.854Z,11.1
2024-02-20T10:12:39.175Z,11.1
2024-02-20T10:13:39.528Z,11.1
2024-02-20T10:14:39.778Z,11.1
2024-02-20T10:15:39.937Z,11.1
2024-02-20T10:16:45.156Z,11.1
2024-02-20T10:17:45.975Z,10.3
2024-02-20T10:18:46.400Z,10.3
2024-02-20T10:19:46.954Z,10.1
2024-02-20T10:20:47.256Z,10.1
2024-02-20T10:21:47.460Z,10.1
2024-02-20T10:22:47.820Z,10.1
2024-02-20T10:23:48.252Z,10.1
2024-02-20T10:24:48.442Z,10.1
2024-02-20T10:25:48.646Z,10.1
2024-02-20T10:26:49.125Z,10.1
2024-02-20T10:27:49.313Z,10.1
2024-02-20T10:28:49.641Z,10.1
2024-02-20T10:29:49.850Z,10.1
2024-02-20T10:30:50.033Z,10.1
2024-02-20T10:31:50.332Z,10.1
2024-02-20T10:32:50.613Z,10.1
2024-02-20T10:34:06.164Z,10.1
2024-02-20T10:35:15.635Z,9.7
2024-02-20T10:36:16.094Z,9.7
2024-02-20T10:37:16.266Z,9.7
2024-02-20T10:38:16.543Z,9.7
2024-02-20T10:39:16.718Z,9.7
2024-02-20T10:40:28.066Z,9.7
2024-02-20T10:41:29.126Z,9.5
2024-02-20T10:42:29.413Z,9.5
2024-02-20T10:43:29.861Z,9.5
2024-02-20T10:44:30.103Z,9.5
2024-02-20T10:45:30.677Z,9.5
2024-02-20T10:46:30.907Z,9.5
2024-02-20T10:47:31.201Z,9.1
2024-02-20T10:48:32.162Z,9.1
2024-02-20T10:49:34.138Z,9.1
2024-02-20T10:50:34.523Z,9.1
2024-02-20T10:51:34.671Z,9.1
2024-02-20T10:52:34.974Z,9.1
2024-02-20T10:53:35.191Z,9.1
2024-02-20T10:54:47.197Z,9.1
2024-02-20T10:55:56.392Z,8.89
2024-02-20T10:56:56.654Z,8.89
2024-02-20T10:57:56.905Z,8.89
2024-02-20T10:58:57.271Z,8.89
2024-02-20T10:59:57.693Z,8.89
2024-02-20T11:00:57.937Z,8.89
2024-02-20T11:01:58.577Z,8.89
2024-02-20T11:02:58.873Z,8.89
2024-02-20T11:04:04.447Z,8.89
2024-02-20T11:05:15.608Z,8.6
2024-02-20T11:06:16.262Z,8.6
2024-02-20T11:07:16.801Z,8.6
2024-02-20T11:08:17.319Z,8.6
2024-02-20T11:09:17.556Z,8.6
2024-02-20T11:10:17.774Z,8.6
2024-02-20T11:11:18.004Z,8.6
2024-02-20T11:12:18.217Z,8.6
2024-02-20T11:13:18.436Z,8.6
2024-02-20T11:14:18.721Z,8.6
2024-02-20T11:15:18.882Z,8.6
2024-02-20T11:16:24.886Z,8.6
2024-02-20T11:17:30.277Z,8.8
2024-02-20T11:18:30.899Z,8.8
2024-02-20T11:19:31.351Z,8.8
2024-02-20T11:20:31.730Z,8.8
2024-02-20T11:21:32.005Z,8.8
2024-02-20T11:22:32.242Z,8.8
2024-02-20T11:23:33.323Z,8.8
2024-02-20T11:24:33.480Z,8.8
2024-02-20T11:25:33.756Z,8.8
2024-02-20T11:26:34.197Z,8.8
2024-02-20T11:27:34.390Z,8.8
2024-02-20T11:28:34.570Z,8.8
2024-02-20T11:29:39.715Z,8.8
2024-02-20T11:30:40.630Z,9.2
2024-02-20T11:31:40.900Z,9.2
2024-02-20T11:32:41.242Z,9.2
2024-02-20T11:33:41.828Z,9.2
2024-02-20T11:34:42.377Z,9.2
2024-02-20T11:35:43.972Z,9.2
2024-02-20T11:36:44.531Z,9.2
2024-02-20T11:37:54.665Z,9.2
2024-02-20T11:38:56.355Z,9.39
2024-02-20T11:39:56.529Z,9.39
2024-02-20T11:40:56.791Z,9.39
2024-02-20T11:41:56.972Z,9.39
2024-02-20T11:42:57.525Z,9.39
2024-02-20T11:43:57.693Z,9.39
2024-02-20T11:44:57.869Z,9.39
2024-02-20T11:45:58.073Z,9.39
2024-02-20T11:46:58.683Z,9.39
2024-02-20T11:47:59.112Z,9.6
2024-02-20T11:48:59.600Z,9.6
2024-02-20T11:49:59.940Z,9.6
2024-02-20T11:51:00.221Z,9.6
2024-02-20T11:52:00.850Z,9.6
2024-02-20T11:53:01.312Z,9.6
2024-02-20T11:54:01.701Z,9.6
2024-02-20T11:55:02.034Z,9.6
2024-02-20T11:56:02.352Z,9.6
2024-02-20T11:57:02.527Z,9.6
2024-02-20T11:58:02.840Z,9.6
2024-02-20T11:59:03.246Z,9.6
2024-02-20T12:00:03.589Z,9.6
2024-02-20T12:01:06.831Z,9.6
2024-02-20T12:02:08.707Z,10.6
2024-02-20T12:03:09.206Z,10.6
2024-02-20T12:04:09.606Z,10.6
2024-02-20T12:05:10.164Z,10.6
2024-02-20T12:06:11.937Z,10.6
2024-02-20T12:07:12.576Z,10.6
2024-02-20T12:08:13.105Z,10.6
2024-02-20T12:09:13.410Z,11.6
2024-02-20T12:10:13.623Z,11.6
2024-02-20T12:11:14.088Z,11.6
2024-02-20T12:12:14.375Z,11.6
2024-02-20T12:13:14.636Z,11.6
2024-02-20T12:14:15.102Z,11.6
2024-02-20T12:15:15.379Z,11.6
2024-02-20T12:16:15.713Z,11.6
2024-02-20T12:17:15.960Z,11.6
2024-02-20T12:18:16.287Z,11.6
2024-02-20T12:19:29.037Z,11.6
2024-02-20T12:20:30.686Z,12.6
2024-02-20T12:21:30.876Z,12.6
2024-02-20T12:22:31.135Z,12.6
2024-02-20T12:23:31.338Z,12.6
2024-02-20T12:24:31.516Z,12.6
2024-02-20T12:25:31.848Z,12.6
2024-02-20T12:26:32.124Z,12.6
2024-02-20T12:27:32.452Z,12.6
2024-02-20T12:28:32.676Z,12.6
2024-02-20T12:29:35.857Z,12.6
2024-02-20T12:30:39.253Z,12.8
2024-02-20T12:31:39.483Z,12.8
2024-02-20T12:32:39.753Z,12.8
2024-02-20T12:33:40.149Z,12.8
2024-02-20T12:34:49.737Z,12.8
2024-02-20T12:35:53.430Z,12.8
2024-02-20T12:36:53.844Z,12.8
2024-02-20T12:37:54.145Z,12.8
2024-02-20T12:38:54.427Z,12.8
2024-02-20T12:39:54.584Z,12.8
2024-02-20T12:40:54.876Z,12.8
2024-02-20T12:41:55.134Z,12.8
2024-02-20T12:42:55.335Z,12.8
2024-02-20T12:43:55.953Z,12.8
2024-02-20T12:44:56.397Z,12.8
2024-02-20T12:45:56.527Z,12.8
2024-02-20T12:46:56.834Z,12.8
2024-02-20T12:47:57.231Z,12.8
2024-02-20T12:48:57.924Z,12.8
2024-02-20T12:49:58.373Z,12.8
2024-02-20T12:50:58.748Z,12.8
2024-02-20T12:51:59.058Z,12.8
2024-02-20T12:52:59.344Z,12.8
2024-02-20T12:53:59.491Z,12.8
2024-02-20T12:54:59.705Z,12.8
2024-02-20T12:55:59.855Z,12.8
2024-02-20T12:57:00.041Z,12.8
2024-02-20T12:58:00.248Z,12.8
2024-02-20T12:59:00.731Z,12.8
2024-02-20T13:00:01.006Z,12.8
2024-02-20T13:01:01.418Z,12.8
2024-02-20T13:02:01.961Z,12.8
2024-02-20T13:03:02.269Z,12.8
2024-02-20T13:04:02.674Z,12.8
2024-02-20T13:05:03.181Z,12.8
2024-02-20T13:06:03.911Z,12.8
2024-02-20T13:07:04.712Z,12.8
2024-02-20T13:08:05.092Z,12.8
2024-02-20T13:09:05.249Z,12.8
2024-02-20T13:10:05.474Z,12.8
2024-02-20T13:11:05.806Z,12.8
2024-02-20T13:12:06.214Z,12.8
2024-02-20T13:13:06.557Z,12.8
2024-02-20T13:14:07.254Z,12.8
2024-02-20T13:15:07.625Z,12.8
2024-02-20T13:16:08.025Z,12.8
2024-02-20T13:17:08.296Z,12.8
2024-02-20T13:18:08.612Z,12.8
2024-02-20T13:19:09.028Z,12.8
2024-02-20T13:20:09.530Z,12.8
2024-02-20T13:21:09.726Z,11.7
2024-02-20T13:22:09.935Z,11.7
2024-02-20T13:23:13.673Z,11.7
2024-02-20T13:24:15.508Z,11.5
2024-02-20T13:25:15.734Z,11.5
2024-02-20T13:26:15.935Z,11.5
2024-02-20T13:27:16.077Z,11.5
2024-02-20T13:28:16.299Z,11.5
2024-02-20T13:29:16.486Z,11.5
2024-02-20T13:30:16.741Z,11.5
2024-02-20T13:31:16.996Z,11.5
2024-02-20T13:32:17.220Z,11.5
2024-02-20T13:33:17.558Z,11.5
2024-02-20T13:34:18.081Z,11.5
2024-02-20T13:35:21.054Z,11.5
2024-02-20T13:36:21.655Z,11.5
2024-02-20T13:37:21.821Z,11.5
2024-02-20T13:38:22.019Z,11.5
2024-02-20T13:39:22.164Z,11.5
2024-02-20T13:40:22.510Z,11.5
2024-02-20T13:41:22.979Z,11.5
2024-02-20T13:42:23.160Z,11.5
2024-02-20T13:43:23.934Z,11.5
2024-02-20T13:44:24.143Z,11.5
2024-02-20T13:45:24.308Z,11.5
2024-02-20T13:46:24.574Z,11.5
2024-02-20T13:47:25.470Z,11.5
2024-02-20T13:48:25.899Z,11.5